createdAt,value
2022-11-29T00:00:59.767Z,12.20
2022-11-29T00:06:06.664Z,12.00
2022-11-29T00:11:10.632Z,11.00
2022-11-29T00:16:13.384Z,12.80
2022-11-29T00:21:17.497Z,13.20
2022-11-29T00:26:20.416Z,12.00
2022-11-29T00:31:23.873Z,12.20
2022-11-29T00:36:28.150Z,12.80
2022-11-29T00:41:31.383Z,13.80
2022-11-29T00:46:34.366Z,11.00
2022-11-29T00:51:38.552Z,11.80
2022-11-29T00:56:41.646Z,11.60
2022-11-29T01:01:44.677Z,13.20
2022-11-29T01:06:51.249Z,11.40
2022-11-29T01:11:54.045Z,12.00
2022-11-29T01:16:57.096Z,11.80
2022-11-29T01:22:01.321Z,11.80
2022-11-29T01:27:04.094Z,12.40
2022-11-29T01:32:07.042Z,11.00
2022-11-29T01:37:11.153Z,12.00
2022-11-29T01:42:14.024Z,11.40
2022-11-29T01:47:16.998Z,12.00
2022-11-29T01:52:22.418Z,11.40
2022-11-29T01:57:25.359Z,11.60
2022-11-29T02:02:30.342Z,11.00
2022-11-29T02:07:34.612Z,11.40
2022-11-29T02:12:41.566Z,8.20
2022-11-29T02:17:53.161Z,11.60
2022-11-29T02:22:58.392Z,10.00
2022-11-29T02:28:31.232Z,9.00
2022-11-29T02:33:59.182Z,11.20
2022-11-29T02:39:09.118Z,9.80
2022-11-29T02:44:29.763Z,8.40
2022-11-29T02:49:42.737Z,9.80
2022-11-29T02:54:48.061Z,10.60
2022-11-29T02:59:53.857Z,11.00
2022-11-29T03:05:00.898Z,8.80
2022-11-29T03:10:06.311Z,9.20
2022-11-29T03:15:18.116Z,10.00
2022-11-29T03:20:30.343Z,10.40
2022-11-29T03:25:34.983Z,10.20
2022-11-29T03:30:38.771Z,8.40
2022-11-29T03:35:44.900Z,10.40
2022-11-29T03:40:51.288Z,7.60
2022-11-29T03:45:57.105Z,11.20
2022-11-29T03:51:04.574Z,10.00
2022-11-29T03:56:23.997Z,10.20
2022-11-29T04:01:56.928Z,8.00
2022-11-29T04:07:06.922Z,9.60
2022-11-29T04:12:37.734Z,9.60
2022-11-29T04:17:55.599Z,10.60
2022-11-29T04:23:34.553Z,7.80
2022-11-29T04:29:00.636Z,8.60
2022-11-29T04:34:19.270Z,10.00
2022-11-29T04:39:33.451Z,10.40
2022-11-29T04:44:44.532Z,10.80
2022-11-29T04:49:56.721Z,8.40
2022-11-29T04:55:03.356Z,10.00
2022-11-29T05:00:09.950Z,9.80
2022-11-29T05:05:19.512Z,9.80
2022-11-29T05:10:26.305Z,9.60
2022-11-29T05:16:05.622Z,10.80
2022-11-29T05:21:10.648Z,10.60
2022-11-29T05:26:15.984Z,10.00
2022-11-29T05:31:44.553Z,8.80
2022-11-29T05:36:50.133Z,7.80
2022-11-29T05:42:05.382Z,9.80
2022-11-29T05:47:10.704Z,9.00
2022-11-29T05:52:24.300Z,7.80
2022-11-29T05:57:30.274Z,9.20
2022-11-29T06:02:46.765Z,9.60
2022-11-29T06:07:52.992Z,7.00
2022-11-29T06:13:00.304Z,9.60
2022-11-29T06:18:15.120Z,7.00
2022-11-29T06:23:24.605Z,6.00
2022-11-29T06:28:33.033Z,9.00
2022-11-29T06:33:41.609Z,6.40
2022-11-29T06:38:44.845Z,8.80
2022-11-29T06:43:48.232Z,10.20
2022-11-29T06:48:57.851Z,7.20
2022-11-29T06:54:10.023Z,8.60
2022-11-29T06:59:18.335Z,10.40
2022-11-29T07:04:46.376Z,8.40
2022-11-29T07:09:50.622Z,5.80
2022-11-29T07:14:54.258Z,7.00
2022-11-29T07:20:04.550Z,6.00
2022-11-29T07:25:13.556Z,7.00
2022-11-29T07:30:18.018Z,8.40
2022-11-29T07:35:24.015Z,7.60
2022-11-29T07:40:34.440Z,9.60
2022-11-29T07:45:40.155Z,6.00
2022-11-29T07:50:44.435Z,9.00
2022-11-29T07:55:47.354Z,7.00
2022-11-29T08:00:50.208Z,5.60
2022-11-29T08:05:54.739Z,27.20
2022-11-29T08:10:57.486Z,30.60
2022-11-29T08:16:00.343Z,32.20
2022-11-29T08:21:08.108Z,23.20
2022-11-29T08:26:10.929Z,22.20
2022-11-29T08:31:14.041Z,17.80
2022-11-29T08:36:19.029Z,16.20
2022-11-29T08:41:21.807Z,19.20
2022-11-29T08:46:44.785Z,18.40
2022-11-29T08:51:48.937Z,17.80
2022-11-29T09:02:14.571Z,14.80
2022-11-29T09:07:18.917Z,15.80
2022-11-29T09:12:21.779Z,14.80
2022-11-29T09:17:24.606Z,16.40
2022-11-29T09:22:28.784Z,16.60
2022-11-29T09:27:32.056Z,14.00
2022-11-29T09:32:35.499Z,22.60
2022-11-29T09:37:42.894Z,26.80
2022-11-29T09:42:51.053Z,35.80
2022-11-29T09:47:59.866Z,34.40
2022-11-29T09:53:15.943Z,35.50
2022-11-29T09:58:20.765Z,34.40
2022-11-29T10:03:25.406Z,31.80
2022-11-29T10:08:34.806Z,31.50
2022-11-29T10:13:40.423Z,32.50
2022-11-29T10:18:45.270Z,29.60
2022-11-29T10:23:50.220Z,33.75
2022-11-29T10:28:55.961Z,34.60
2022-11-29T10:34:00.802Z,33.40
2022-11-29T10:39:12.986Z,30.60
2022-11-29T10:44:17.110Z,30.20
2022-11-29T10:49:20.769Z,24.00
2022-11-29T10:54:33.648Z,27.40
2022-11-29T10:59:36.401Z,27.00
2022-11-29T11:04:45.733Z,23.20
2022-11-29T11:09:50.735Z,21.20
2022-11-29T11:14:53.948Z,25.40
2022-11-29T11:19:58.111Z,19.00
2022-11-29T11:25:03.122Z,19.20
2022-11-29T11:30:06.955Z,20.60
2022-11-29T11:35:22.446Z,22.00
2022-11-29T11:40:28.965Z,18.80
2022-11-29T11:45:34.181Z,21.40
2022-11-29T11:50:41.528Z,17.40
2022-11-29T11:55:56.773Z,19.20
2022-11-29T12:01:04.736Z,18.00
2022-11-29T12:06:18.753Z,20.80
2022-11-29T12:11:22.969Z,19.20
2022-11-29T12:16:28.488Z,17.60
2022-11-29T12:21:34.368Z,14.00
2022-11-29T12:32:15.795Z,17.00
2022-11-29T12:37:21.823Z,18.00
2022-11-29T12:42:36.578Z,17.00
2022-11-29T12:47:50.333Z,16.40
2022-11-29T12:52:59.612Z,13.00
2022-11-29T12:58:05.921Z,14.60
2022-11-29T13:03:22.455Z,21.20
2022-11-29T13:08:46.913Z,21.00
2022-11-29T13:13:52.807Z,20.60
2022-11-29T13:18:58.081Z,16.00
2022-11-29T13:24:10.537Z,16.80
2022-11-29T13:29:17.966Z,18.20
2022-11-29T13:34:23.217Z,16.80
2022-11-29T13:39:33.762Z,18.00
2022-11-29T13:44:39.338Z,20.00
2022-11-29T13:49:53.420Z,20.60
2022-11-29T13:55:07.353Z,22.40
2022-11-29T14:00:28.940Z,25.40
2022-11-29T14:05:32.397Z,32.00
2022-11-29T14:10:35.178Z,25.40
2022-11-29T14:15:39.393Z,27.80
2022-11-29T14:20:46.503Z,28.75
2022-11-29T14:26:28.512Z,29.80
2022-11-29T14:31:56.113Z,27.00
2022-11-29T14:37:00.569Z,29.80
2022-11-29T14:42:07.767Z,24.40
2022-11-29T14:47:21.224Z,28.20
2022-11-29T14:52:32.013Z,28.60
2022-11-29T14:58:11.339Z,26.20
2022-11-29T15:03:19.913Z,29.40
2022-11-29T15:08:32.138Z,27.20
2022-11-29T15:13:36.672Z,28.20
2022-11-29T15:19:08.254Z,26.80
2022-11-29T15:24:11.871Z,25.40
2022-11-29T15:29:15.419Z,26.20
2022-11-29T15:34:21.813Z,27.00
2022-11-29T15:39:26.230Z,27.60
2022-11-29T15:44:29.058Z,26.40
2022-11-29T15:49:33.217Z,26.20
2022-11-29T15:54:38.665Z,29.20
2022-11-29T15:59:42.831Z,29.20
2022-11-29T16:04:47.447Z,30.40
2022-11-29T16:09:51.649Z,28.00
2022-11-29T16:14:55.925Z,29.00
2022-11-29T16:20:23.560Z,26.60
2022-11-29T16:25:27.450Z,31.00
2022-11-29T16:30:30.204Z,34.50
2022-11-29T16:35:34.884Z,29.25
2022-11-29T16:40:37.860Z,29.75
2022-11-29T16:45:41.200Z,34.25
2022-11-29T16:50:46.060Z,35.25
2022-11-29T16:55:48.902Z,31.25
2022-11-29T17:00:52.079Z,32.50
2022-11-29T17:05:56.329Z,31.00
2022-11-29T17:10:59.197Z,29.00
2022-11-29T17:16:01.982Z,29.20
2022-11-29T17:21:06.420Z,33.60
2022-11-29T17:26:10.102Z,30.80
2022-11-29T17:31:13.184Z,28.40
2022-11-29T17:36:18.189Z,26.00
2022-11-29T17:41:22.623Z,27.00
2022-11-29T17:46:26.065Z,27.40
2022-11-29T17:56:53.065Z,29.20
2022-11-29T18:01:55.912Z,25.80
2022-11-29T18:07:01.480Z,27.00
2022-11-29T18:12:04.593Z,25.00
2022-11-29T18:17:07.413Z,26.40
2022-11-29T18:22:11.697Z,25.00
2022-11-29T18:27:14.701Z,26.00
2022-11-29T18:32:17.555Z,27.20
2022-11-29T18:37:47.471Z,23.20
2022-11-29T18:42:44.524Z,29.20
2022-11-29T18:47:47.503Z,24.00
2022-11-29T18:52:54.073Z,25.60
2022-11-29T18:57:56.857Z,25.20
2022-11-29T19:02:59.702Z,26.00
2022-11-29T19:08:03.853Z,25.40
2022-11-29T19:13:06.665Z,28.00
2022-11-29T19:18:09.525Z,27.00
2022-11-29T19:23:13.731Z,22.40
2022-11-29T19:28:17.135Z,23.60
2022-11-29T19:33:19.916Z,25.20
2022-11-29T19:38:24.066Z,24.60
2022-11-29T19:43:26.867Z,23.40
2022-11-29T19:48:29.717Z,22.00
2022-11-29T19:53:34.325Z,24.20
2022-11-29T19:58:37.345Z,25.80
2022-11-29T20:03:40.399Z,20.80
2022-11-29T20:08:44.750Z,20.40
2022-11-29T20:13:48.202Z,21.60
2022-11-29T20:18:51.554Z,22.80
2022-11-29T20:23:57.344Z,21.00
2022-11-29T20:29:00.322Z,23.40
2022-11-29T20:34:03.349Z,20.00
2022-11-29T20:39:12.710Z,21.40
2022-11-29T20:44:18.189Z,19.40
2022-11-29T20:49:21.527Z,18.80
2022-11-29T20:54:25.774Z,17.80
2022-11-29T20:59:28.679Z,22.40
2022-11-29T21:04:58.529Z,20.00
2022-11-29T21:10:02.703Z,18.80
2022-11-29T21:15:06.650Z,18.80
2022-11-29T21:20:10.187Z,19.00
2022-11-29T21:25:16.650Z,16.80
2022-11-29T21:30:20.957Z,17.40
2022-11-29T21:35:23.701Z,17.00
2022-11-29T21:40:27.906Z,17.40
2022-11-29T21:45:30.648Z,17.40
2022-11-29T21:50:33.386Z,17.20
2022-11-29T21:55:37.558Z,16.80
2022-11-29T22:00:40.319Z,18.60
2022-11-29T22:05:43.123Z,19.80
2022-11-29T22:10:47.217Z,17.80
2022-11-29T22:15:50.011Z,17.00
2022-11-29T22:20:52.913Z,15.60
2022-11-29T22:25:57.057Z,16.60
2022-11-29T22:31:06.639Z,14.00
2022-11-29T22:36:10.634Z,17.20
2022-11-29T22:41:15.242Z,16.20
2022-11-29T22:46:19.633Z,15.80
2022-11-29T22:51:23.224Z,17.00
2022-11-29T22:56:28.260Z,17.60
2022-11-29T23:01:31.958Z,13.80
2022-11-29T23:06:35.709Z,16.60
2022-11-29T23:11:39.898Z,14.60
2022-11-29T23:16:42.762Z,14.00
2022-11-29T23:21:46.235Z,16.80
2022-11-29T23:26:50.484Z,16.80
2022-11-29T23:31:53.393Z,15.80
2022-11-29T23:36:56.417Z,17.20
2022-11-29T23:42:00.740Z,15.80
2022-11-29T23:47:03.552Z,14.20
2022-11-29T23:52:06.404Z,15.40
2022-11-29T23:57:10.626Z,13.60
